sensor_id;sensor_type;location;lat;lon;timestamp;temperature;humidity
12885;DHT22;6510;51.362;7.370;2023-05-19T00:01:27;8.90;99.90
12885;DHT22;6510;51.362;7.370;2023-05-19T00:03:58;8.90;99.90
12885;DHT22;6510;51.362;7.370;2023-05-19T00:06:28;8.80;99.90
12885;DHT22;6510;51.362;7.370;2023-05-19T00:09:05;8.80;99.90
12885;DHT22;6510;51.362;7.370;2023-05-19T00:11:33;8.70;99.90
12885;DHT22;6510;51.362;7.370;2023-05-19T00:14:01;8.70;99.90
12885;DHT22;6510;51.362;7.370;2023-05-19T00:16:28;8.70;99.90
12885;DHT22;6510;51.362;7.370;2023-05-19T00:18:55;8.70;99.90
12885;DHT22;6510;51.362;7.370;2023-05-19T00:21:22;8.70;99.90
12885;DHT22;6510;51.362;7.370;2023-05-19T00:23:47;8.70;99.90
12885;DHT22;6510;51.362;7.370;2023-05-19T00:26:13;8.70;99.90
12885;DHT22;6510;51.362;7.370;2023-05-19T00:28:39;8.60;99.90
12885;DHT22;6510;51.362;7.370;2023-05-19T00:31:05;8.60;99.90
12885;DHT22;6510;51.362;7.370;2023-05-19T00:33:31;8.60;99.90
12885;DHT22;6510;51.362;7.370;2023-05-19T00:35:58;8.60;99.90
12885;DHT22;6510;51.362;7.370;2023-05-19T00:38:24;8.50;99.90
12885;DHT22;6510;51.362;7.370;2023-05-19T00:40:50;8.60;99.90
12885;DHT22;6510;51.362;7.370;2023-05-19T00:43:16;8.50;99.90
12885;DHT22;6510;51.362;7.370;2023-05-19T00:45:41;8.50;99.90
12885;DHT22;6510;51.362;7.370;2023-05-19T00:48:07;8.60;99.90
12885;DHT22;6510;51.362;7.370;2023-05-19T00:50:33;8.50;99.90
12885;DHT22;6510;51.362;7.370;2023-05-19T00:52:59;8.50;99.90
12885;DHT22;6510;51.362;7.370;2023-05-19T00:55:28;8.50;99.90
12885;DHT22;6510;51.362;7.370;2023-05-19T00:57:55;8.50;99.90
12885;DHT22;6510;51.362;7.370;2023-05-19T01:00:21;8.50;99.90
12885;DHT22;6510;51.362;7.370;2023-05-19T01:02:47;8.40;99.90
12885;DHT22;6510;51.362;7.370;2023-05-19T01:05:15;8.40;99.90
12885;DHT22;6510;51.362;7.370;2023-05-19T01:07:41;8.40;99.90
12885;DHT22;6510;51.362;7.370;2023-05-19T01:10:08;8.30;99.90
12885;DHT22;6510;51.362;7.370;2023-05-19T01:12:34;8.30;99.90
12885;DHT22;6510;51.362;7.370;2023-05-19T01:15:01;8.30;99.90
12885;DHT22;6510;51.362;7.370;2023-05-19T01:17:59;8.20;99.90
12885;DHT22;6510;51.362;7.370;2023-05-19T01:20:37;8.20;99.90
12885;DHT22;6510;51.362;7.370;2023-05-19T01:30:55;8.10;99.90
12885;DHT22;6510;51.362;7.370;2023-05-19T01:33:22;8.10;99.90
12885;DHT22;6510;51.362;7.370;2023-05-19T01:35:48;8.00;99.90
12885;DHT22;6510;51.362;7.370;2023-05-19T01:38:16;8.10;99.90
12885;DHT22;6510;51.362;7.370;2023-05-19T01:40:44;8.00;99.90
12885;DHT22;6510;51.362;7.370;2023-05-19T01:43:18;8.00;99.90
12885;DHT22;6510;51.362;7.370;2023-05-19T01:45:44;8.00;99.90
12885;DHT22;6510;51.362;7.370;2023-05-19T01:48:10;7.90;99.90
12885;DHT22;6510;51.362;7.370;2023-05-19T01:50:37;7.90;99.90
12885;DHT22;6510;51.362;7.370;2023-05-19T01:53:03;7.90;99.90
12885;DHT22;6510;51.362;7.370;2023-05-19T01:55:31;7.90;99.90
12885;DHT22;6510;51.362;7.370;2023-05-19T02:12:18;7.70;99.90
12885;DHT22;6510;51.362;7.370;2023-05-19T02:15:14;7.60;99.90
12885;DHT22;6510;51.362;7.370;2023-05-19T02:17:43;7.60;99.90
12885;DHT22;6510;51.362;7.370;2023-05-19T02:20:13;7.40;99.90
12885;DHT22;6510;51.362;7.370;2023-05-19T02:22:39;7.50;99.90
12885;DHT22;6510;51.362;7.370;2023-05-19T02:25:06;7.40;99.90
12885;DHT22;6510;51.362;7.370;2023-05-19T02:27:33;7.40;99.90
12885;DHT22;6510;51.362;7.370;2023-05-19T02:29:58;7.40;99.90
12885;DHT22;6510;51.362;7.370;2023-05-19T02:32:24;7.20;99.90
12885;DHT22;6510;51.362;7.370;2023-05-19T02:34:50;7.20;99.90
12885;DHT22;6510;51.362;7.370;2023-05-19T02:37:16;7.20;99.90
12885;DHT22;6510;51.362;7.370;2023-05-19T02:39:42;7.20;99.90
12885;DHT22;6510;51.362;7.370;2023-05-19T02:42:08;7.20;99.90
12885;DHT22;6510;51.362;7.370;2023-05-19T02:44:33;7.20;99.90
12885;DHT22;6510;51.362;7.370;2023-05-19T02:46:59;7.20;99.90
12885;DHT22;6510;51.362;7.370;2023-05-19T02:49:26;7.20;99.90
12885;DHT22;6510;51.362;7.370;2023-05-19T02:51:55;7.20;99.90
12885;DHT22;6510;51.362;7.370;2023-05-19T02:54:20;7.20;99.90
12885;DHT22;6510;51.362;7.370;2023-05-19T02:56:46;7.20;99.90
12885;DHT22;6510;51.362;7.370;2023-05-19T02:59:12;7.10;99.90
12885;DHT22;6510;51.362;7.370;2023-05-19T03:01:37;7.10;99.90
12885;DHT22;6510;51.362;7.370;2023-05-19T03:04:04;7.20;99.90
12885;DHT22;6510;51.362;7.370;2023-05-19T03:06:30;7.10;99.90
12885;DHT22;6510;51.362;7.370;2023-05-19T03:08:57;7.00;99.90
12885;DHT22;6510;51.362;7.370;2023-05-19T03:11:22;7.00;99.90
12885;DHT22;6510;51.362;7.370;2023-05-19T03:13:48;7.00;99.90
12885;DHT22;6510;51.362;7.370;2023-05-19T03:16:14;7.00;99.90
12885;DHT22;6510;51.362;7.370;2023-05-19T03:18:40;7.00;99.90
12885;DHT22;6510;51.362;7.370;2023-05-19T03:21:06;6.90;99.90
12885;DHT22;6510;51.362;7.370;2023-05-19T03:23:31;6.90;99.90
12885;DHT22;6510;51.362;7.370;2023-05-19T03:25:57;6.90;99.90
12885;DHT22;6510;51.362;7.370;2023-05-19T03:28:22;6.90;99.90
12885;DHT22;6510;51.362;7.370;2023-05-19T03:30:48;6.90;99.90
12885;DHT22;6510;51.362;7.370;2023-05-19T03:33:17;6.80;99.90
12885;DHT22;6510;51.362;7.370;2023-05-19T03:35:42;6.80;99.90
12885;DHT22;6510;51.362;7.370;2023-05-19T03:38:11;6.70;99.90
12885;DHT22;6510;51.362;7.370;2023-05-19T03:40:36;6.70;99.90
12885;DHT22;6510;51.362;7.370;2023-05-19T03:43:02;6.70;99.90
12885;DHT22;6510;51.362;7.370;2023-05-19T03:45:28;6.70;99.90
12885;DHT22;6510;51.362;7.370;2023-05-19T03:47:53;6.70;99.90
12885;DHT22;6510;51.362;7.370;2023-05-19T03:50:19;6.70;99.90
12885;DHT22;6510;51.362;7.370;2023-05-19T03:52:45;6.60;99.90
12885;DHT22;6510;51.362;7.370;2023-05-19T03:55:12;6.50;99.90
12885;DHT22;6510;51.362;7.370;2023-05-19T03:57:39;6.40;99.90
12885;DHT22;6510;51.362;7.370;2023-05-19T04:00:06;6.50;99.90
12885;DHT22;6510;51.362;7.370;2023-05-19T04:02:32;6.60;99.90
12885;DHT22;6510;51.362;7.370;2023-05-19T04:04:57;6.60;99.90
12885;DHT22;6510;51.362;7.370;2023-05-19T04:07:23;6.70;99.90
12885;DHT22;6510;51.362;7.370;2023-05-19T04:09:49;6.60;99.90
12885;DHT22;6510;51.362;7.370;2023-05-19T04:12:15;6.80;99.90
12885;DHT22;6510;51.362;7.370;2023-05-19T04:14:40;6.80;99.90
12885;DHT22;6510;51.362;7.370;2023-05-19T04:17:06;6.80;99.90
12885;DHT22;6510;51.362;7.370;2023-05-19T04:19:32;6.80;99.90
12885;DHT22;6510;51.362;7.370;2023-05-19T04:21:58;7.20;99.90
12885;DHT22;6510;51.362;7.370;2023-05-19T04:24:23;7.30;99.90
12885;DHT22;6510;51.362;7.370;2023-05-19T04:26:49;7.20;99.90
12885;DHT22;6510;51.362;7.370;2023-05-19T04:29:15;7.10;99.90
12885;DHT22;6510;51.362;7.370;2023-05-19T04:31:43;7.20;99.90
12885;DHT22;6510;51.362;7.370;2023-05-19T04:34:09;7.00;99.90
12885;DHT22;6510;51.362;7.370;2023-05-19T04:36:35;7.20;99.90
12885;DHT22;6510;51.362;7.370;2023-05-19T04:39:01;7.30;99.90
12885;DHT22;6510;51.362;7.370;2023-05-19T04:41:28;7.40;99.90
12885;DHT22;6510;51.362;7.370;2023-05-19T04:43:53;7.30;99.90
12885;DHT22;6510;51.362;7.370;2023-05-19T04:46:22;7.10;99.90
12885;DHT22;6510;51.362;7.370;2023-05-19T04:48:49;7.40;99.90
12885;DHT22;6510;51.362;7.370;2023-05-19T04:51:15;7.70;99.90
12885;DHT22;6510;51.362;7.370;2023-05-19T04:53:42;8.50;99.90
12885;DHT22;6510;51.362;7.370;2023-05-19T04:56:08;9.50;99.90
12885;DHT22;6510;51.362;7.370;2023-05-19T04:58:34;10.50;99.90
12885;DHT22;6510;51.362;7.370;2023-05-19T05:01:00;11.20;99.90
12885;DHT22;6510;51.362;7.370;2023-05-19T05:03:26;11.40;99.90
12885;DHT22;6510;51.362;7.370;2023-05-19T05:05:51;11.40;99.90
12885;DHT22;6510;51.362;7.370;2023-05-19T05:08:17;12.10;99.90
12885;DHT22;6510;51.362;7.370;2023-05-19T05:10:51;12.70;99.90
12885;DHT22;6510;51.362;7.370;2023-05-19T05:13:21;12.60;99.90
12885;DHT22;6510;51.362;7.370;2023-05-19T05:15:47;13.10;99.90
12885;DHT22;6510;51.362;7.370;2023-05-19T05:18:13;13.50;99.90
12885;DHT22;6510;51.362;7.370;2023-05-19T05:20:43;13.70;99.90
12885;DHT22;6510;51.362;7.370;2023-05-19T05:23:09;14.10;99.90
12885;DHT22;6510;51.362;7.370;2023-05-19T05:25:39;14.50;99.90
12885;DHT22;6510;51.362;7.370;2023-05-19T05:28:05;14.00;99.90
12885;DHT22;6510;51.362;7.370;2023-05-19T05:30:32;14.20;99.90
12885;DHT22;6510;51.362;7.370;2023-05-19T05:32:58;14.00;99.90
12885;DHT22;6510;51.362;7.370;2023-05-19T05:35:24;14.00;99.90
12885;DHT22;6510;51.362;7.370;2023-05-19T05:37:50;14.70;99.90
12885;DHT22;6510;51.362;7.370;2023-05-19T05:40:16;15.00;99.90
12885;DHT22;6510;51.362;7.370;2023-05-19T05:42:42;14.90;99.90
12885;DHT22;6510;51.362;7.370;2023-05-19T05:45:08;15.30;99.90
12885;DHT22;6510;51.362;7.370;2023-05-19T05:47:34;15.50;99.90
12885;DHT22;6510;51.362;7.370;2023-05-19T05:50:03;15.50;99.90
12885;DHT22;6510;51.362;7.370;2023-05-19T05:52:29;15.40;99.90
12885;DHT22;6510;51.362;7.370;2023-05-19T05:54:56;15.30;99.90
12885;DHT22;6510;51.362;7.370;2023-05-19T05:57:22;14.90;99.90
12885;DHT22;6510;51.362;7.370;2023-05-19T05:59:48;14.70;99.90
12885;DHT22;6510;51.362;7.370;2023-05-19T06:02:16;15.10;99.90
12885;DHT22;6510;51.362;7.370;2023-05-19T06:04:41;15.50;99.90
12885;DHT22;6510;51.362;7.370;2023-05-19T06:07:08;15.70;99.90
12885;DHT22;6510;51.362;7.370;2023-05-19T06:09:33;16.00;99.90
12885;DHT22;6510;51.362;7.370;2023-05-19T06:11:59;15.90;99.90
12885;DHT22;6510;51.362;7.370;2023-05-19T06:14:25;15.50;99.90
12885;DHT22;6510;51.362;7.370;2023-05-19T06:16:50;15.90;99.90
12885;DHT22;6510;51.362;7.370;2023-05-19T06:19:17;16.00;99.90
12885;DHT22;6510;51.362;7.370;2023-05-19T06:21:44;16.30;99.90
12885;DHT22;6510;51.362;7.370;2023-05-19T06:24:10;16.00;99.90
12885;DHT22;6510;51.362;7.370;2023-05-19T06:26:35;16.30;99.90
12885;DHT22;6510;51.362;7.370;2023-05-19T06:29:01;17.20;99.90
12885;DHT22;6510;51.362;7.370;2023-05-19T06:31:28;17.30;99.90
12885;DHT22;6510;51.362;7.370;2023-05-19T06:33:53;17.10;99.90
12885;DHT22;6510;51.362;7.370;2023-05-19T06:36:19;17.70;99.90
12885;DHT22;6510;51.362;7.370;2023-05-19T06:38:45;17.10;99.90
12885;DHT22;6510;51.362;7.370;2023-05-19T06:41:11;17.10;99.90
12885;DHT22;6510;51.362;7.370;2023-05-19T06:43:36;17.10;99.90
12885;DHT22;6510;51.362;7.370;2023-05-19T06:46:02;18.00;99.90
12885;DHT22;6510;51.362;7.370;2023-05-19T06:48:27;18.20;99.90
12885;DHT22;6510;51.362;7.370;2023-05-19T06:50:53;17.60;99.90
12885;DHT22;6510;51.362;7.370;2023-05-19T06:53:19;18.10;99.90
12885;DHT22;6510;51.362;7.370;2023-05-19T06:55:45;17.40;99.90
12885;DHT22;6510;51.362;7.370;2023-05-19T06:58:11;17.70;99.90
12885;DHT22;6510;51.362;7.370;2023-05-19T07:00:36;17.20;99.90
12885;DHT22;6510;51.362;7.370;2023-05-19T07:03:02;17.70;99.90
12885;DHT22;6510;51.362;7.370;2023-05-19T07:05:30;18.20;99.90
12885;DHT22;6510;51.362;7.370;2023-05-19T07:07:55;18.70;99.90
12885;DHT22;6510;51.362;7.370;2023-05-19T07:10:21;19.10;99.90
12885;DHT22;6510;51.362;7.370;2023-05-19T07:12:47;19.20;99.90
12885;DHT22;6510;51.362;7.370;2023-05-19T07:15:12;19.00;99.90
12885;DHT22;6510;51.362;7.370;2023-05-19T07:17:38;19.50;99.90
12885;DHT22;6510;51.362;7.370;2023-05-19T07:20:04;19.50;99.90
12885;DHT22;6510;51.362;7.370;2023-05-19T07:22:35;18.90;99.90
12885;DHT22;6510;51.362;7.370;2023-05-19T07:25:00;18.50;99.90
12885;DHT22;6510;51.362;7.370;2023-05-19T07:27:26;19.60;99.90
12885;DHT22;6510;51.362;7.370;2023-05-19T07:29:53;19.00;99.90
12885;DHT22;6510;51.362;7.370;2023-05-19T07:32:18;19.10;99.90
12885;DHT22;6510;51.362;7.370;2023-05-19T07:34:44;19.10;99.90
12885;DHT22;6510;51.362;7.370;2023-05-19T07:37:10;20.10;99.90
12885;DHT22;6510;51.362;7.370;2023-05-19T07:39:35;20.10;99.90
12885;DHT22;6510;51.362;7.370;2023-05-19T07:42:01;20.20;99.90
12885;DHT22;6510;51.362;7.370;2023-05-19T07:44:27;19.00;99.90
12885;DHT22;6510;51.362;7.370;2023-05-19T07:46:55;19.30;99.90
12885;DHT22;6510;51.362;7.370;2023-05-19T07:49:21;19.40;99.90
12885;DHT22;6510;51.362;7.370;2023-05-19T07:51:47;20.40;99.90
12885;DHT22;6510;51.362;7.370;2023-05-19T07:54:12;21.20;99.90
12885;DHT22;6510;51.362;7.370;2023-05-19T07:56:38;21.40;99.90
12885;DHT22;6510;51.362;7.370;2023-05-19T07:59:04;20.60;99.90
12885;DHT22;6510;51.362;7.370;2023-05-19T08:01:30;20.90;99.90
12885;DHT22;6510;51.362;7.370;2023-05-19T08:03:56;20.70;99.90
12885;DHT22;6510;51.362;7.370;2023-05-19T08:06:22;21.30;99.90
12885;DHT22;6510;51.362;7.370;2023-05-19T08:08:49;21.60;99.90
12885;DHT22;6510;51.362;7.370;2023-05-19T08:11:15;21.00;99.90
12885;DHT22;6510;51.362;7.370;2023-05-19T08:13:41;20.90;99.90
12885;DHT22;6510;51.362;7.370;2023-05-19T08:16:06;21.90;99.90
12885;DHT22;6510;51.362;7.370;2023-05-19T08:18:33;21.90;99.90
12885;DHT22;6510;51.362;7.370;2023-05-19T08:20:58;21.40;99.90
12885;DHT22;6510;51.362;7.370;2023-05-19T08:23:24;20.70;99.90
12885;DHT22;6510;51.362;7.370;2023-05-19T08:25:50;21.30;99.90
12885;DHT22;6510;51.362;7.370;2023-05-19T08:28:15;21.70;99.90
12885;DHT22;6510;51.362;7.370;2023-05-19T08:30:41;21.90;99.90
12885;DHT22;6510;51.362;7.370;2023-05-19T08:33:07;22.00;99.90
12885;DHT22;6510;51.362;7.370;2023-05-19T08:35:33;21.20;99.90
12885;DHT22;6510;51.362;7.370;2023-05-19T08:37:58;21.00;99.90
12885;DHT22;6510;51.362;7.370;2023-05-19T08:40:24;21.10;99.90
12885;DHT22;6510;51.362;7.370;2023-05-19T08:42:52;21.90;99.90
12885;DHT22;6510;51.362;7.370;2023-05-19T08:45:18;20.70;99.90
12885;DHT22;6510;51.362;7.370;2023-05-19T08:47:45;21.80;99.90
12885;DHT22;6510;51.362;7.370;2023-05-19T08:50:13;21.60;99.90
12885;DHT22;6510;51.362;7.370;2023-05-19T08:52:51;21.30;99.90
12885;DHT22;6510;51.362;7.370;2023-05-19T08:55:39;21.50;99.90
12885;DHT22;6510;51.362;7.370;2023-05-19T08:58:07;21.80;99.90
12885;DHT22;6510;51.362;7.370;2023-05-19T09:00:33;22.40;99.90
12885;DHT22;6510;51.362;7.370;2023-05-19T09:03:00;22.30;99.90
12885;DHT22;6510;51.362;7.370;2023-05-19T09:05:25;22.00;99.90
12885;DHT22;6510;51.362;7.370;2023-05-19T09:07:51;22.70;99.90
12885;DHT22;6510;51.362;7.370;2023-05-19T09:10:17;22.90;99.90
12885;DHT22;6510;51.362;7.370;2023-05-19T09:12:44;23.20;99.90
12885;DHT22;6510;51.362;7.370;2023-05-19T09:15:11;22.30;99.90
12885;DHT22;6510;51.362;7.370;2023-05-19T09:17:38;21.20;99.90
12885;DHT22;6510;51.362;7.370;2023-05-19T09:20:05;22.60;99.90
12885;DHT22;6510;51.362;7.370;2023-05-19T09:22:44;23.40;99.90
12885;DHT22;6510;51.362;7.370;2023-05-19T09:25:24;24.00;99.90
12885;DHT22;6510;51.362;7.370;2023-05-19T09:27:53;23.70;99.90
12885;DHT22;6510;51.362;7.370;2023-05-19T09:30:19;23.50;99.90
12885;DHT22;6510;51.362;7.370;2023-05-19T09:32:45;22.60;99.90
12885;DHT22;6510;51.362;7.370;2023-05-19T09:35:11;21.60;99.90
12885;DHT22;6510;51.362;7.370;2023-05-19T09:37:41;22.60;99.90
12885;DHT22;6510;51.362;7.370;2023-05-19T09:40:08;23.30;99.90
12885;DHT22;6510;51.362;7.370;2023-05-19T09:42:37;22.90;99.90
12885;DHT22;6510;51.362;7.370;2023-05-19T09:45:03;24.00;99.90
12885;DHT22;6510;51.362;7.370;2023-05-19T09:47:39;23.30;99.90
12885;DHT22;6510;51.362;7.370;2023-05-19T09:50:10;22.80;99.90
12885;DHT22;6510;51.362;7.370;2023-05-19T09:52:42;24.10;99.90
12885;DHT22;6510;51.362;7.370;2023-05-19T09:55:11;24.20;99.90
12885;DHT22;6510;51.362;7.370;2023-05-19T09:57:37;23.50;99.90
12885;DHT22;6510;51.362;7.370;2023-05-19T10:00:06;22.20;99.90
12885;DHT22;6510;51.362;7.370;2023-05-19T10:02:43;22.70;99.90
12885;DHT22;6510;51.362;7.370;2023-05-19T10:05:19;23.10;99.90
12885;DHT22;6510;51.362;7.370;2023-05-19T10:07:45;22.40;99.90
12885;DHT22;6510;51.362;7.370;2023-05-19T10:10:14;23.00;99.90
12885;DHT22;6510;51.362;7.370;2023-05-19T10:12:40;23.50;99.90
12885;DHT22;6510;51.362;7.370;2023-05-19T10:15:11;22.50;99.90
12885;DHT22;6510;51.362;7.370;2023-05-19T10:17:41;23.10;99.90
12885;DHT22;6510;51.362;7.370;2023-05-19T10:20:14;23.10;99.90
12885;DHT22;6510;51.362;7.370;2023-05-19T10:22:41;22.70;99.90
12885;DHT22;6510;51.362;7.370;2023-05-19T10:25:08;23.20;99.90
12885;DHT22;6510;51.362;7.370;2023-05-19T10:28:02;24.10;99.90
12885;DHT22;6510;51.362;7.370;2023-05-19T10:30:33;23.80;99.90
12885;DHT22;6510;51.362;7.370;2023-05-19T10:33:01;23.20;99.90
12885;DHT22;6510;51.362;7.370;2023-05-19T10:38:47;23.40;99.90
12885;DHT22;6510;51.362;7.370;2023-05-19T10:42:00;23.70;99.90
12885;DHT22;6510;51.362;7.370;2023-05-19T10:47:07;24.20;99.90
12885;DHT22;6510;51.362;7.370;2023-05-19T10:49:36;24.60;99.90
12885;DHT22;6510;51.362;7.370;2023-05-19T10:52:02;24.30;99.90
12885;DHT22;6510;51.362;7.370;2023-05-19T10:54:41;24.30;99.90
12885;DHT22;6510;51.362;7.370;2023-05-19T10:57:08;25.00;99.90
12885;DHT22;6510;51.362;7.370;2023-05-19T10:59:38;24.50;99.90
12885;DHT22;6510;51.362;7.370;2023-05-19T11:02:05;24.70;99.90
12885;DHT22;6510;51.362;7.370;2023-05-19T11:04:48;24.20;99.90
12885;DHT22;6510;51.362;7.370;2023-05-19T11:07:19;24.70;99.90
12885;DHT22;6510;51.362;7.370;2023-05-19T11:09:50;23.70;99.90
12885;DHT22;6510;51.362;7.370;2023-05-19T11:12:20;25.20;99.90
12885;DHT22;6510;51.362;7.370;2023-05-19T11:14:47;24.30;99.90
12885;DHT22;6510;51.362;7.370;2023-05-19T11:17:15;24.20;99.90
12885;DHT22;6510;51.362;7.370;2023-05-19T11:19:56;23.80;99.90
12885;DHT22;6510;51.362;7.370;2023-05-19T11:22:23;24.30;99.90
12885;DHT22;6510;51.362;7.370;2023-05-19T11:24:50;24.50;99.90
12885;DHT22;6510;51.362;7.370;2023-05-19T11:27:34;24.10;99.90
12885;DHT22;6510;51.362;7.370;2023-05-19T11:32:34;23.20;99.90
12885;DHT22;6510;51.362;7.370;2023-05-19T11:35:03;23.50;99.90
12885;DHT22;6510;51.362;7.370;2023-05-19T11:37:33;23.70;99.90
12885;DHT22;6510;51.362;7.370;2023-05-19T11:40:03;24.00;99.90
12885;DHT22;6510;51.362;7.370;2023-05-19T11:42:31;23.90;99.90
12885;DHT22;6510;51.362;7.370;2023-05-19T11:44:58;23.50;99.90
12885;DHT22;6510;51.362;7.370;2023-05-19T11:47:23;23.90;99.90
12885;DHT22;6510;51.362;7.370;2023-05-19T11:49:50;24.60;99.90
12885;DHT22;6510;51.362;7.370;2023-05-19T11:52:22;23.80;99.90
12885;DHT22;6510;51.362;7.370;2023-05-19T11:54:48;24.90;99.90
12885;DHT22;6510;51.362;7.370;2023-05-19T11:57:14;25.20;99.90
12885;DHT22;6510;51.362;7.370;2023-05-19T11:59:40;25.10;99.90
12885;DHT22;6510;51.362;7.370;2023-05-19T12:02:17;25.10;99.90
12885;DHT22;6510;51.362;7.370;2023-05-19T12:04:43;25.20;99.90
12885;DHT22;6510;51.362;7.370;2023-05-19T12:07:10;24.80;99.30
12885;DHT22;6510;51.362;7.370;2023-05-19T12:09:36;24.70;99.90
12885;DHT22;6510;51.362;7.370;2023-05-19T12:12:02;25.20;99.90
12885;DHT22;6510;51.362;7.370;2023-05-19T12:14:29;25.20;99.60
12885;DHT22;6510;51.362;7.370;2023-05-19T12:16:55;24.80;99.60
12885;DHT22;6510;51.362;7.370;2023-05-19T12:19:22;24.40;99.90
12885;DHT22;6510;51.362;7.370;2023-05-19T12:21:53;23.70;99.10
12885;DHT22;6510;51.362;7.370;2023-05-19T12:24:19;24.20;99.90
12885;DHT22;6510;51.362;7.370;2023-05-19T12:26:46;25.30;99.90
12885;DHT22;6510;51.362;7.370;2023-05-19T12:29:12;25.10;99.90
12885;DHT22;6510;51.362;7.370;2023-05-19T12:31:38;24.10;99.90
12885;DHT22;6510;51.362;7.370;2023-05-19T12:34:04;24.80;99.90
12885;DHT22;6510;51.362;7.370;2023-05-19T12:36:31;23.50;99.90
12885;DHT22;6510;51.362;7.370;2023-05-19T12:38:57;24.50;99.90
12885;DHT22;6510;51.362;7.370;2023-05-19T12:41:26;24.70;99.90
12885;DHT22;6510;51.362;7.370;2023-05-19T12:43:53;24.90;99.90
12885;DHT22;6510;51.362;7.370;2023-05-19T12:46:19;24.80;99.90
12885;DHT22;6510;51.362;7.370;2023-05-19T12:48:46;25.20;98.60
12885;DHT22;6510;51.362;7.370;2023-05-19T12:51:19;24.60;98.80
12885;DHT22;6510;51.362;7.370;2023-05-19T12:53:45;24.30;99.90
12885;DHT22;6510;51.362;7.370;2023-05-19T12:56:15;24.50;98.90
12885;DHT22;6510;51.362;7.370;2023-05-19T12:58:42;24.10;98.60
12885;DHT22;6510;51.362;7.370;2023-05-19T13:01:15;24.30;99.90
12885;DHT22;6510;51.362;7.370;2023-05-19T13:03:41;24.20;99.10
12885;DHT22;6510;51.362;7.370;2023-05-19T13:06:07;24.40;99.00
12885;DHT22;6510;51.362;7.370;2023-05-19T13:08:34;24.80;99.70
12885;DHT22;6510;51.362;7.370;2023-05-19T13:11:00;24.70;98.90
12885;DHT22;6510;51.362;7.370;2023-05-19T13:13:26;24.20;99.90
12885;DHT22;6510;51.362;7.370;2023-05-19T13:15:51;23.90;99.20
12885;DHT22;6510;51.362;7.370;2023-05-19T13:18:18;23.50;99.70
12885;DHT22;6510;51.362;7.370;2023-05-19T13:20:45;22.60;98.70
12885;DHT22;6510;51.362;7.370;2023-05-19T13:23:11;23.40;99.70
12885;DHT22;6510;51.362;7.370;2023-05-19T13:25:38;23.90;99.90
12885;DHT22;6510;51.362;7.370;2023-05-19T13:28:04;23.90;99.50
12885;DHT22;6510;51.362;7.370;2023-05-19T13:30:32;24.00;99.90
12885;DHT22;6510;51.362;7.370;2023-05-19T13:32:58;23.70;99.90
12885;DHT22;6510;51.362;7.370;2023-05-19T13:35:23;23.40;98.40
12885;DHT22;6510;51.362;7.370;2023-05-19T13:37:49;22.90;99.90
12885;DHT22;6510;51.362;7.370;2023-05-19T13:40:15;23.50;99.80
12885;DHT22;6510;51.362;7.370;2023-05-19T13:42:42;23.40;99.60
12885;DHT22;6510;51.362;7.370;2023-05-19T13:45:08;22.40;99.80
12885;DHT22;6510;51.362;7.370;2023-05-19T13:47:34;23.10;99.20
12885;DHT22;6510;51.362;7.370;2023-05-19T13:50:02;23.20;99.20
12885;DHT22;6510;51.362;7.370;2023-05-19T13:52:29;22.30;99.00
12885;DHT22;6510;51.362;7.370;2023-05-19T13:54:54;22.70;99.70
12885;DHT22;6510;51.362;7.370;2023-05-19T13:57:24;23.30;99.20
12885;DHT22;6510;51.362;7.370;2023-05-19T13:59:50;23.50;99.90
12885;DHT22;6510;51.362;7.370;2023-05-19T14:02:16;23.20;98.70
12885;DHT22;6510;51.362;7.370;2023-05-19T14:04:42;22.80;99.80
12885;DHT22;6510;51.362;7.370;2023-05-19T14:07:07;22.80;99.70
12885;DHT22;6510;51.362;7.370;2023-05-19T14:09:36;22.30;99.00
12885;DHT22;6510;51.362;7.370;2023-05-19T14:12:01;22.40;99.90
12885;DHT22;6510;51.362;7.370;2023-05-19T14:14:27;22.10;99.40
12885;DHT22;6510;51.362;7.370;2023-05-19T14:16:53;22.30;99.70
12885;DHT22;6510;51.362;7.370;2023-05-19T14:19:18;22.10;99.30
12885;DHT22;6510;51.362;7.370;2023-05-19T14:21:44;22.00;99.90
12885;DHT22;6510;51.362;7.370;2023-05-19T14:24:10;22.20;99.90
12885;DHT22;6510;51.362;7.370;2023-05-19T14:26:35;21.70;98.40
12885;DHT22;6510;51.362;7.370;2023-05-19T14:29:02;21.20;99.90
12885;DHT22;6510;51.362;7.370;2023-05-19T14:31:27;21.20;99.90
12885;DHT22;6510;51.362;7.370;2023-05-19T14:33:53;21.20;99.90
12885;DHT22;6510;51.362;7.370;2023-05-19T14:36:19;20.90;99.90
12885;DHT22;6510;51.362;7.370;2023-05-19T14:38:46;21.10;99.90
12885;DHT22;6510;51.362;7.370;2023-05-19T14:41:12;21.00;99.90
12885;DHT22;6510;51.362;7.370;2023-05-19T14:43:37;20.90;99.80
12885;DHT22;6510;51.362;7.370;2023-05-19T14:46:05;21.10;99.90
12885;DHT22;6510;51.362;7.370;2023-05-19T14:48:31;21.00;99.90
12885;DHT22;6510;51.362;7.370;2023-05-19T14:50:56;21.20;99.90
12885;DHT22;6510;51.362;7.370;2023-05-19T14:53:22;20.80;99.90
12885;DHT22;6510;51.362;7.370;2023-05-19T14:55:48;20.40;99.90
12885;DHT22;6510;51.362;7.370;2023-05-19T14:58:14;20.40;99.90
12885;DHT22;6510;51.362;7.370;2023-05-19T15:00:41;20.70;99.90
12885;DHT22;6510;51.362;7.370;2023-05-19T15:03:08;20.80;99.90
12885;DHT22;6510;51.362;7.370;2023-05-19T15:05:33;21.00;99.90
12885;DHT22;6510;51.362;7.370;2023-05-19T15:07:59;21.10;99.90
12885;DHT22;6510;51.362;7.370;2023-05-19T15:10:25;20.70;99.90
12885;DHT22;6510;51.362;7.370;2023-05-19T15:12:50;20.80;99.90
12885;DHT22;6510;51.362;7.370;2023-05-19T15:15:16;20.80;99.90
12885;DHT22;6510;51.362;7.370;2023-05-19T15:17:42;20.60;99.90
12885;DHT22;6510;51.362;7.370;2023-05-19T15:20:10;20.40;99.90
12885;DHT22;6510;51.362;7.370;2023-05-19T15:22:36;20.50;99.90
12885;DHT22;6510;51.362;7.370;2023-05-19T15:25:01;20.60;99.90
12885;DHT22;6510;51.362;7.370;2023-05-19T15:27:27;20.50;99.90
12885;DHT22;6510;51.362;7.370;2023-05-19T15:29:52;20.60;99.90
12885;DHT22;6510;51.362;7.370;2023-05-19T15:32:18;20.70;99.90
12885;DHT22;6510;51.362;7.370;2023-05-19T15:34:44;20.30;99.90
12885;DHT22;6510;51.362;7.370;2023-05-19T15:37:10;20.10;99.90
12885;DHT22;6510;51.362;7.370;2023-05-19T15:39:35;20.10;99.90
12885;DHT22;6510;51.362;7.370;2023-05-19T15:42:01;20.20;99.90
12885;DHT22;6510;51.362;7.370;2023-05-19T15:44:27;20.20;99.90
12885;DHT22;6510;51.362;7.370;2023-05-19T15:46:52;19.80;99.90
12885;DHT22;6510;51.362;7.370;2023-05-19T15:49:18;20.00;99.90
12885;DHT22;6510;51.362;7.370;2023-05-19T15:51:44;20.00;99.90
12885;DHT22;6510;51.362;7.370;2023-05-19T15:54:10;20.20;99.90
12885;DHT22;6510;51.362;7.370;2023-05-19T15:56:38;20.00;99.90
12885;DHT22;6510;51.362;7.370;2023-05-19T15:59:04;20.00;99.90
12885;DHT22;6510;51.362;7.370;2023-05-19T16:01:30;19.90;99.90
12885;DHT22;6510;51.362;7.370;2023-05-19T16:03:55;19.80;99.90
12885;DHT22;6510;51.362;7.370;2023-05-19T16:06:21;19.70;99.90
12885;DHT22;6510;51.362;7.370;2023-05-19T16:08:46;19.80;99.90
12885;DHT22;6510;51.362;7.370;2023-05-19T16:11:12;19.50;99.90
12885;DHT22;6510;51.362;7.370;2023-05-19T16:13:38;19.40;99.90
12885;DHT22;6510;51.362;7.370;2023-05-19T16:16:04;19.50;99.90
12885;DHT22;6510;51.362;7.370;2023-05-19T16:18:30;19.40;99.90
12885;DHT22;6510;51.362;7.370;2023-05-19T16:20:56;19.20;99.90